Archival Weather

Dallas-Fort Worth Intl

Dallas-Fort Worth, Texas (KDFW)

Report from: Thursday, February 22, 2024 12:19 AM CST
Current time: Tuesday, April 23, 2024 1:53 AM CDT

Current weather – Weather history – Daily summaries
Weather forecast

Temperature18.3°C (64.9°F)
Dew point15.0°C (59.0°F)
Winds 20 kts (10.3 m/s, 23 mph) South (190°)
Wind gusts 28 kts (14.4 m/s, 32.2 mph)
Peak wind 28 kts (14.4 m/s, 32.2 mph) South (180°) at 06:11
Visibility10 mi. (16.1 km)
Clouds Ceiling: Broken clouds 2,000 ft. (610 m)
Altimeter29.81 in.Hg (1009 mB)
Relative humidity81 %
Density altitude751 ft. (229 m)
Remarks Automated weather observing station with precipitation discriminator
Flight conditions Marginal Visual Meteorological Conditions
Raw dataKDFW 220619Z 19020G28KT 10SM BKN020 18/15 A2981 RMK AO2 PK WND 18028/0611 T01830150
An error has occurred. This application may no longer respond until reloaded. Reload 🗙